This is the latest recevied weather packets stored in our database for station/object WL7CLI. If no packets are shown the sender has not sent any weather packets the latest 10 day(s).
| Time | Temp. | Humidity | Pressure | Rain* | Wind** | Luminosity | Snow |
|---|---|---|---|---|---|---|---|
| 1777386504 | 10° C | 70% | 1017.3 hPa | 0 mm | - | - | - |
| 1777385772 | 9.44° C | 70% | 1017.4 hPa | 0 mm | - | - | - |
| 1777384703 | 8.89° C | 73% | 1015.4 hPa | 0 mm | - | - | - |
| 1777384571 | 8.89° C | 72% | 1015.5 hPa | 0 mm | - | - | - |
| 1777383370 | 8.33° C | 73% | 1015.1 hPa | 0 mm | - | - | - |
| 1777382904 | 8.33° C | 74% | 1015 hPa | 0 mm | - | - | - |
| 1777382172 | 8.33° C | 73% | 1015.9 hPa | 0 mm | - | - | - |
| 1777381104 | 8.33° C | 73% | 1015.8 hPa | 0 mm | - | - | - |
| 1777380970 | 8.33° C | 73% | 1016.2 hPa | 0 mm | - | - | - |
| 1777379771 | 7.78° C | 77% | 1016.5 hPa | 0 mm | - | - | - |
| 1777379304 | 7.78° C | 77% | 1015.9 hPa | 0 mm | - | - | - |
| 1777378570 | 7.78° C | 78% | 1015.7 hPa | 0 mm | - | - | - |
| 1777377504 | 7.78° C | 79% | 1014.8 hPa | 0 mm | - | - | - |
| 1777377372 | 7.78° C | 80% | 1015.1 hPa | 0 mm | - | - | - |
| 1777376172 | 7.78° C | 79% | 1015.1 hPa | 0 mm | - | - | - |
| 1777375704 | 7.78° C | 79% | 1014.9 hPa | 0 mm | - | - | - |
| 1777374971 | 7.78° C | 78% | 1015.3 hPa | 0 mm | - | - | - |
| 1777373904 | 8.33° C | 76% | 1015 hPa | 0 mm | - | - | - |
| 1777373771 | 8.33° C | 75% | 1015.3 hPa | 0 mm | - | - | - |
| 1777372570 | 8.89° C | 74% | 1014.9 hPa | 0 mm | - | - | - |
| 1777372104 | 8.89° C | 73% | 1014.7 hPa | 0 mm | - | - | - |
| 1777371371 | 8.89° C | 73% | 1014.7 hPa | 0 mm | - | - | - |
| 1777370304 | 8.89° C | 76% | 1013.7 hPa | 0 mm | - | - | - |
| 1777370171 | 8.89° C | 76% | 1013.8 hPa | 0 mm | - | - | - |
| 1777368971 | 8.89° C | 75% | 1013.7 hPa | 0 mm | - | - | - |
* Rain latest hour (hover to see other rain measurements)
** Current wind speed in m/s (hover to see current wind gust speed)